• Join FlightAware (Why Join?)
  • Login
  • US Flag 
07:58AM EDT


 

Airport Tracker/Info


-or-


 

Live Flight TrackerFlight Track Log ✈ AWE1253 ✈ 28-Apr-2013 ✈ KPHL - KTPA

Flight Track Log - Related Links

Times and Time Zones

All times are in EDT time to prevent confusion due to time zone crossing. See the AWE1253 flight status page for this flight to view local times or setup timezone preferences in your user account.

Time Position Orientation Groundspeed Altitude Reporting Facility
EDT Latitude Longitude Course Direction KTS MPH feet Rate Location/Type
08:56PM 39.8833 -75.2167 201° Southwest 173 199 700  Level Philadelphia TRACON
08:56PM 39.8667 -75.2000 142° Southeast 180 207 1,500 2,340 Climbing Philadelphia TRACON
08:57PM 39.8500 -75.1333 108° East 225 259 4,000 2,520 Climbing Philadelphia TRACON
08:59PM 39.5167 -75.3143 186° South  Level FlightAware Approximate
09:00PM 39.3940 -75.3377 185° South  Level FlightAware Approximate
09:00PM 39.7192 -75.1706 192° South 216 249 9,900  Level Washington Center
09:01PM 39.2707 -75.3563 201° Southwest  Level FlightAware Approximate
09:01PM 39.6506 -75.2197 209° Southwest 256 295 11,800  Level Washington Center
09:02PM 39.5694 -75.2792 209° Southwest 307 353 12,400 1,680 Climbing Washington Center
09:03PM 39.4778 -75.3361 206° Southwest 347 399 15,200 1,740 Climbing Washington Center
09:04PM 39.3736 -75.3525 187° South 367 422 16,000 300 Climbing Washington Center
09:05PM 39.2778 -75.3692 188° South 367 422 15,900  Descending Washington Center
09:06PM 39.1819 -75.3881 189° South 362 417 16,100 960 Climbing Washington Center
09:07PM 39.0842 -75.3992 185° South 356 410 17,900 1,980 Climbing Washington Center
09:08PM 38.9819 -75.4128 186° South 356 410 20,100 2,160 Climbing Washington Center
09:09PM 38.8756 -75.4342 189° South 374 430 22,200 1,980 Climbing Washington Center
09:10PM 38.7653 -75.4478 185° South 391 450 24,100 1,680 Climbing Washington Center
09:11PM 38.6506 -75.4667 187° South 401 461 25,700 1,680 Climbing Washington Center
09:12PM 38.5358 -75.4856 187° South 414 476 27,500 1,800 Climbing Washington Center
09:13PM 38.4192 -75.5017 186° South 424 488 29,300 1,560 Climbing Washington Center
09:13PM 38.3067 -75.5336 193° South 424 488 30,600 1,320 Climbing Washington Center
09:15PM 38.2064 -75.5969 206° Southwest 416 479 32,000 660 Climbing Washington Center
09:16PM 38.1042 -75.6603 206° Southwest 416 479 32,000  Level Washington Center
09:17PM 38.0042 -75.7289 208° Southwest 411 473 32,000  Level Washington Center
09:18PM 37.9039 -75.7944 207° Southwest 411 473 32,000  Level Washington Center
09:19PM 37.7994 -75.8494 203° Southwest 411 473 32,000  Level Washington Center
09:20PM 37.6992 -75.9197 209° Southwest 406 467 32,000  Level Washington Center
09:21PM 37.5969 -75.9822 206° Southwest 406 467 32,000  Level Washington Center
09:22PM 37.4944 -76.0419 205° Southwest 406 467 32,000  Level Washington Center
09:23PM 37.3919 -76.1067 207° Southwest 406 467 32,000  Level Washington Center
09:24PM 37.2875 -76.1661 204° Southwest 406 467 32,000  Level Washington Center
09:25PM 37.1850 -76.2253 205° Southwest 412 474 32,000  Level Washington Center
09:26PM 37.0803 -76.2894 206° Southwest 412 474 32,000  Level Washington Center
09:27PM 36.9778 -76.3536 207° Southwest 412 474 32,000  Level Washington Center
09:28PM 36.8731 -76.4150 205° Southwest 412 474 32,000  Level Washington Center
09:29PM 36.7683 -76.4761 205° Southwest 412 474 32,000  Level Washington Center
09:30PM 36.6781 -76.5347 208° Southwest 412 474 32,000  Level Washington Center
09:31PM 36.5733 -76.5956 205° Southwest 417 480 32,000  Level Washington Center
09:32PM 36.4706 -76.6561 205° Southwest 417 480 32,000  Level Washington Center
09:33PM 36.3678 -76.7167 205° Southwest 417 480 32,000  Level Washington Center
09:34PM 36.2628 -76.7769 205° Southwest 417 480 32,000  Level Washington Center
09:35PM 36.1581 -76.8372 205° Southwest 417 480 32,000  Level Washington Center
09:36PM 36.0550 -76.8972 205° Southwest 411 473 32,000  Level Washington Center
09:37PM 35.9500 -76.9594 206° Southwest 411 473 32,000  Level Washington Center
09:38PM 35.8428 -77.0217 205° Southwest 416 479 32,000  Level Washington Center
09:39PM 35.7419 -77.0839 207° Southwest 416 479 32,000  Level Washington Center
09:40PM 35.6392 -77.1408 204° Southwest 416 479 32,000  Level Washington Center
09:41PM 35.5361 -77.2028 206° Southwest 410 472 32,000  Level Washington Center
09:42PM 35.4331 -77.2617 205° Southwest 410 472 32,000  Level Washington Center
09:43PM 35.3319 -77.3208 206° Southwest 405 466 32,000  Level Washington Center
09:44PM 35.2247 -77.3819 205° Southwest 405 466 32,000  Level Washington Center
09:45PM 35.1217 -77.4381 204° Southwest 410 472 32,000  Level Washington Center
09:46PM 35.0161 -77.5017 206° Southwest 410 472 32,000  Level Washington Center
09:47PM 34.9111 -77.5575 204° Southwest 415 478 32,000  Level Washington Center
09:48PM 34.8078 -77.6208 207° Southwest 415 478 32,000  Level Washington Center
09:49PM 34.7022 -77.6839 206° Southwest 415 478 32,000  Level Washington Center
09:50PM 34.5969 -77.7417 204° Southwest 420 483 32,000  Level Washington Center
09:51PM 34.4936 -77.7994 205° Southwest 420 483 32,000  Level Washington Center
09:52PM 34.3861 -77.8594 205° Southwest 420 483 32,000  Level Washington Center
09:54PM 34.1025 -77.9447 194° South 432 497 32,000  Level Jacksonville Center
09:55PM 33.9889 -77.9786 194° South 432 497 32,000  Level Jacksonville Center
09:56PM 33.8733 -78.0103 193° South 427 491 32,000  Level Jacksonville Center
09:57PM 33.7600 -78.0464 195° South 427 491 32,000  Level Jacksonville Center
09:58PM 33.6425 -78.0803 194° South 434 499 32,000  Level Jacksonville Center
09:59PM 33.5289 -78.1139 194° South 428 493 32,000  Level Jacksonville Center
10:00PM 33.4111 -78.1453 193° South 428 493 32,000  Level Jacksonville Center
10:01PM 33.2956 -78.1786 194° South 428 493 32,000  Level Jacksonville Center
10:02PM 33.1778 -78.2097 192° South 428 493 32,000  Level Jacksonville Center
10:03PM 33.0622 -78.2456 195° South 428 493 32,000  Level Jacksonville Center
10:04PM 32.9444 -78.2789 193° South 428 493 32,000  Level Jacksonville Center
10:05PM 32.8267 -78.3069 191° South 428 493 32,000  Level Jacksonville Center
10:06PM 32.7089 -78.3428 194° South 428 493 32,000  Level Jacksonville Center
10:07PM 32.5889 -78.3733 192° South 433 498 32,000  Level Jacksonville Center
10:08PM 32.4733 -78.4086 194° South 433 498 32,000  Level Jacksonville Center
10:09PM 32.3556 -78.4414 193° South 433 498 32,000  Level Jacksonville Center
10:10PM 32.2400 -78.4792 195° South 433 498 32,000  Level Jacksonville Center
10:11PM 32.1242 -78.5142 194° South 433 498 32,000  Level Jacksonville Center
10:12PM 32.0064 -78.5492 194° South 428 493 32,000  Level Jacksonville Center
10:13PM 31.8886 -78.5839 194° South 428 493 32,000  Level Jacksonville Center
10:14PM 31.7792 -78.6136 193° South 428 493 32,000  Level Jacksonville Center
10:15PM 31.6592 -78.6483 194° South 435 501 32,000  Level Jacksonville Center
10:16PM 31.5433 -78.6781 192° South 428 493 32,000  Level Jacksonville Center
10:17PM 31.4297 -78.7147 195° South 423 487 32,000  Level Jacksonville Center
10:18PM 31.3117 -78.7492 194° South 433 498 32,000  Level Jacksonville Center
10:19PM 31.1958 -78.7811 193° South 433 498 32,000  Level Jacksonville Center
10:20PM 31.0800 -78.8128 193° South 433 498 32,000  Level Jacksonville Center
10:21PM 30.9642 -78.8469 194° South 428 493 32,000  Level Jacksonville Center
10:22PM 30.8464 -78.8808 194° South 434 499 32,000  Level Jacksonville Center
10:23PM 30.7283 -78.9125 193° South 434 499 32,000  Level Jacksonville Center
10:24PM 30.6103 -78.9464 194° South 429 494 32,000  Level Jacksonville Center
10:25PM 30.5461 -78.9625 192° South 417 480 32,000  Level Miami Center
10:26PM 30.4331 -78.9989 196° South 417 480 32,000  Level Miami Center
10:27PM 30.3156 -79.0469 199° South 425 489 32,000  Level Miami Center
10:28PM 30.2103 -79.1214 211° Southwest 430 495 32,000  Level Miami Center
10:29PM 30.1172 -79.1986 216° Southwest 430 495 32,000  Level Miami Center
10:30PM 30.0117 -79.2850 215° Southwest 430 495 32,000  Level Miami Center
10:31PM 29.9250 -79.3500 213° Southwest 436 502 32,000  Level Miami Center
10:32PM 29.8172 -79.4336 214° Southwest 430 495 32,000  Level Miami Center
10:33PM 29.7197 -79.5150 216° Southwest 430 495 32,000  Level Miami Center
10:34PM 29.6225 -79.5914 214° Southwest 430 495 32,000  Level Miami Center
10:35PM 29.5250 -79.6628 213° Southwest 430 495 32,000  Level Miami Center
10:36PM 29.4278 -79.7364 213° Southwest 430 495 32,000 -240 Level Miami Center
10:37PM 29.3322 -79.8125 215° Southwest 430 495 31,600 -720 Descending Miami Center
10:38PM 29.2328 -79.8858 213° Southwest 430 495 30,700 180 Descending Miami Center
10:39PM 29.1331 -79.9639 214° Southwest 435 501 32,000 -2,160 Climbing Miami Center
10:40PM 29.0375 -80.0397 215° Southwest 435 501 26,500 -4,440 Descending Miami Center
10:41PM 28.9439 -80.1128 214° Southwest 430 495 23,200 -1,740 Descending Miami Center
10:42PM 28.9025 -80.1994 241° Southwest 405 466 23,000 -1,380 Descending Miami Center
10:44PM 28.8167 -80.4833 251° West 370 426 18,700 -1,800 Descending Orlando TRACON
10:45PM 28.7667 -80.6167 247° West 390 449 17,000 -840 Descending Orlando TRACON
10:46PM 28.7333 -80.7167 249° West 372 428 17,000 -240 Level Orlando TRACON
10:47PM 28.7000 -80.8333 252° West 375 432 16,600 -480 Descending Orlando TRACON
10:48PM 28.6667 -80.9333 249° West 373 429 16,200 -360 Descending Orlando TRACON
10:49PM 28.6333 -81.0500 252° West 370 426 16,000 -120 Descending Orlando TRACON
10:50PM 28.6000 -81.1500 249° West 368 423 16,000  Level Orlando TRACON
10:51PM 28.5500 -81.3000 249° West 369 425 16,000 -300 Level Orlando TRACON
10:52PM 28.5333 -81.3667 254° West 372 428 15,500 -960 Descending Orlando TRACON
10:53PM 28.5167 -81.4833 261° West 364 419 14,400 -1,020 Descending Orlando TRACON
10:54PM 28.5000 -81.6000 261° West 359 413 13,400 -780 Descending Orlando TRACON
10:56PM 28.4500 -81.8167 255° West 355 409 12,000 -480 Descending Tampa TRACON
10:57PM 28.4000 -81.9167 240° Southwest 344 396 12,000 -360 Level Tampa TRACON
10:58PM 28.3333 -82.0000 228° Southwest 342 394 11,300 -900 Descending Tampa TRACON
10:59PM 28.2667 -82.0667 221° Southwest 342 394 10,400 -900 Descending Tampa TRACON
11:00PM 28.2167 -82.1333 230° Southwest 306 352 9,700 -1,080 Descending Tampa TRACON
11:01PM 28.1667 -82.2000 230° Southwest 281 323 8,400 -1,500 Descending Tampa TRACON
11:02PM 28.1167 -82.2667 230° Southwest 270 311 6,800 -1,620 Descending Tampa TRACON
11:03PM 28.0667 -82.3167 221° Southwest 266 306 5,200 -900 Descending Tampa TRACON
11:04PM 28.0167 -82.3833 230° Southwest 258 297 5,000 -720 Descending Tampa TRACON
11:05PM 27.9500 -82.4167 204° Southwest 263 303 3,800 -1,020 Descending Tampa TRACON
11:06PM 27.8833 -82.4333 192° South 241 277 3,000 -420 Descending Tampa TRACON
11:07PM 27.8500 -82.4667 221° Southwest 201 231 3,000 -480 Level Tampa TRACON
11:08PM 27.8500 -82.5333 270° West 198 228 2,100 -900 Descending Tampa TRACON